createdAt,value
2022-10-26T00:01:15.304Z,1.48
2022-10-26T00:03:44.775Z,0.40
2022-10-26T00:06:17.391Z,0.45
2022-10-26T00:08:46.190Z,0.37
2022-10-26T00:11:14.226Z,0.25
2022-10-26T00:13:42.182Z,0.57
2022-10-26T00:16:12.388Z,0.10
2022-10-26T00:18:40.094Z,0.03
2022-10-26T00:21:09.180Z,0.00
2022-10-26T00:23:37.904Z,0.40
2022-10-26T00:26:05.806Z,0.32
2022-10-26T00:28:34.049Z,0.00
2022-10-26T00:31:11.915Z,0.15
2022-10-26T00:33:39.779Z,0.03
2022-10-26T00:36:08.127Z,0.20
2022-10-26T00:38:36.467Z,0.20
2022-10-26T00:41:04.235Z,0.10
2022-10-26T00:43:32.053Z,0.10
2022-10-26T00:45:59.918Z,0.10
2022-10-26T00:48:41.345Z,0.00
2022-10-26T00:51:15.710Z,0.10
2022-10-26T00:53:43.624Z,0.20
2022-10-26T00:56:11.712Z,0.22
2022-10-26T00:58:39.795Z,0.03
2022-10-26T01:01:07.461Z,0.08
2022-10-26T01:03:36.298Z,0.10
2022-10-26T01:06:05.479Z,0.00
2022-10-26T01:08:33.219Z,0.93
2022-10-26T01:11:01.546Z,0.40
2022-10-26T01:13:31.607Z,0.00
2022-10-26T01:16:18.071Z,0.35
2022-10-26T01:19:10.373Z,0.30
2022-10-26T01:21:48.774Z,0.20
2022-10-26T01:24:28.343Z,0.10
2022-10-26T01:27:11.171Z,0.52
2022-10-26T01:30:09.928Z,0.10
2022-10-26T01:32:49.295Z,0.10
2022-10-26T01:35:29.307Z,0.10
2022-10-26T01:38:02.612Z,0.00
2022-10-26T01:40:36.533Z,1.05
2022-10-26T01:43:07.428Z,0.50
2022-10-26T01:45:38.076Z,0.10
2022-10-26T01:48:06.170Z,0.20
2022-10-26T01:50:34.436Z,0.30
2022-10-26T01:53:02.339Z,0.08
2022-10-26T01:55:32.803Z,0.50
2022-10-26T01:58:10.148Z,0.30
2022-10-26T02:00:43.803Z,0.45
2022-10-26T02:03:23.288Z,0.05
2022-10-26T02:06:20.106Z,0.25
2022-10-26T02:09:09.901Z,0.37
2022-10-26T02:11:37.640Z,0.60
2022-10-26T02:14:22.958Z,0.20
2022-10-26T02:16:56.390Z,0.30
2022-10-26T02:19:36.357Z,0.50
2022-10-26T02:22:19.732Z,0.10
2022-10-26T02:24:48.460Z,0.00
2022-10-26T02:27:20.299Z,0.00
2022-10-26T02:29:50.287Z,0.20
2022-10-26T02:32:18.966Z,0.28
2022-10-26T02:34:47.786Z,0.00
2022-10-26T02:37:18.777Z,0.10
2022-10-26T02:39:48.716Z,0.35
2022-10-26T02:42:18.475Z,0.10
2022-10-26T02:44:51.619Z,0.10
2022-10-26T02:47:19.921Z,0.90
2022-10-26T02:49:47.827Z,0.88
2022-10-26T02:52:15.268Z,0.55
2022-10-26T02:55:05.904Z,0.43
2022-10-26T02:57:36.891Z,4.10
2022-10-26T03:02:32.465Z,1.80
2022-10-26T03:05:21.966Z,0.37
2022-10-26T03:07:50.077Z,0.80
2022-10-26T03:10:17.889Z,0.82
2022-10-26T03:12:45.905Z,1.67
2022-10-26T03:15:14.080Z,0.20
2022-10-26T03:17:41.974Z,1.95
2022-10-26T03:20:10.271Z,1.20
2022-10-26T03:22:38.343Z,0.73
2022-10-26T03:27:39.597Z,1.12
2022-10-26T03:30:07.922Z,1.00
2022-10-26T03:32:35.743Z,1.60
2022-10-26T03:35:04.163Z,1.27
2022-10-26T03:37:31.796Z,1.08
2022-10-26T03:39:59.622Z,0.70
2022-10-26T03:42:27.656Z,1.00
2022-10-26T03:44:55.224Z,0.47
2022-10-26T03:47:22.867Z,2.30
2022-10-26T03:49:50.783Z,0.43
2022-10-26T03:52:18.379Z,0.30
2022-10-26T03:54:46.000Z,0.10
2022-10-26T03:57:13.928Z,0.13
2022-10-26T03:59:41.519Z,0.30
2022-10-26T04:02:09.224Z,0.57
2022-10-26T04:04:37.432Z,0.25
2022-10-26T04:07:05.115Z,0.45
2022-10-26T04:09:32.840Z,0.28
2022-10-26T04:12:00.816Z,0.95
2022-10-26T04:14:28.463Z,0.52
2022-10-26T04:16:56.083Z,1.73
2022-10-26T04:19:24.028Z,1.02
2022-10-26T04:21:51.955Z,1.05
2022-10-26T04:24:19.558Z,1.05
2022-10-26T04:26:47.485Z,0.85
2022-10-26T04:29:15.160Z,0.75
2022-10-26T04:34:12.764Z,1.75
2022-10-26T04:36:40.652Z,0.60
2022-10-26T04:39:08.299Z,1.65
2022-10-26T04:41:36.314Z,0.30
2022-10-26T04:44:03.969Z,0.73
2022-10-26T04:46:31.483Z,0.65
2022-10-26T04:48:59.383Z,0.68
2022-10-26T04:51:26.946Z,0.75
2022-10-26T04:53:55.264Z,0.68
2022-10-26T04:56:23.225Z,0.30
2022-10-26T04:58:54.131Z,1.65
2022-10-26T05:01:22.230Z,0.30
2022-10-26T05:03:51.072Z,1.40
2022-10-26T05:06:19.797Z,0.47
2022-10-26T05:08:47.897Z,0.35
2022-10-26T05:11:15.852Z,1.67
2022-10-26T05:13:43.774Z,0.65
2022-10-26T05:16:11.364Z,0.17
2022-10-26T05:18:39.129Z,0.40
2022-10-26T05:21:06.767Z,0.47
2022-10-26T05:23:34.386Z,0.55
2022-10-26T05:26:02.354Z,0.85
2022-10-26T05:28:30.109Z,0.25
2022-10-26T05:30:58.733Z,0.08
2022-10-26T05:33:26.610Z,0.40
2022-10-26T05:35:54.829Z,0.28
2022-10-26T05:38:22.519Z,0.40
2022-10-26T05:40:54.207Z,1.50
2022-10-26T05:43:23.030Z,0.80
2022-10-26T05:45:51.689Z,0.57
2022-10-26T05:48:20.191Z,0.13
2022-10-26T05:50:47.806Z,0.40
2022-10-26T05:53:15.874Z,0.30
2022-10-26T05:55:43.787Z,0.40
2022-10-26T05:58:13.898Z,0.62
2022-10-26T06:00:47.921Z,0.60
2022-10-26T06:03:24.759Z,0.57
2022-10-26T06:05:57.271Z,0.22
2022-10-26T06:08:27.513Z,0.30
2022-10-26T06:10:56.975Z,0.00
2022-10-26T06:13:25.443Z,0.32
2022-10-26T06:16:11.383Z,0.00
2022-10-26T06:19:17.071Z,0.30
2022-10-26T06:21:54.998Z,0.45
2022-10-26T06:24:37.985Z,0.62
2022-10-26T06:27:18.533Z,0.37
2022-10-26T06:30:02.276Z,0.55
2022-10-26T06:32:31.190Z,0.35
2022-10-26T06:35:30.758Z,0.37
2022-10-26T06:38:01.772Z,0.65
2022-10-26T06:40:31.396Z,0.47
2022-10-26T06:43:00.174Z,1.20
2022-10-26T06:45:28.014Z,0.30
2022-10-26T06:48:14.672Z,0.55
2022-10-26T06:50:42.250Z,0.40
2022-10-26T06:53:18.837Z,2.50
2022-10-26T06:55:47.772Z,3.17
2022-10-26T06:58:23.968Z,5.15
2022-10-26T07:00:54.015Z,2.33
2022-10-26T07:03:22.384Z,2.08
2022-10-26T07:05:50.310Z,0.60
2022-10-26T07:08:20.575Z,0.20
2022-10-26T07:10:48.479Z,0.20
2022-10-26T07:13:16.164Z,1.10
2022-10-26T07:15:43.795Z,0.82
2022-10-26T07:18:12.298Z,0.37
2022-10-26T07:20:41.221Z,0.70
2022-10-26T07:23:09.878Z,0.52
2022-10-26T07:25:38.428Z,0.73
2022-10-26T07:28:07.932Z,0.20
2022-10-26T07:30:36.361Z,0.62
2022-10-26T07:33:07.894Z,1.37
2022-10-26T07:35:36.220Z,0.37
2022-10-26T07:38:04.744Z,2.47
2022-10-26T07:40:32.684Z,0.80
2022-10-26T07:43:00.898Z,1.48
2022-10-26T07:45:29.818Z,1.58
2022-10-26T07:47:57.439Z,0.70
2022-10-26T07:50:25.509Z,1.27
2022-10-26T07:52:53.508Z,1.05
2022-10-26T07:55:21.159Z,1.35
2022-10-26T07:57:52.530Z,0.82
2022-10-26T08:00:22.854Z,1.25
2022-10-26T08:02:50.933Z,0.73
2022-10-26T08:05:18.557Z,0.77
2022-10-26T08:07:46.353Z,1.58
2022-10-26T08:10:15.279Z,0.85
2022-10-26T08:12:43.569Z,0.80
2022-10-26T08:15:11.548Z,0.45
2022-10-26T08:17:39.347Z,0.57
2022-10-26T08:20:07.423Z,0.62
2022-10-26T08:22:35.045Z,1.17
2022-10-26T08:25:03.092Z,1.05
2022-10-26T08:27:30.681Z,1.05
2022-10-26T08:29:58.336Z,1.77
2022-10-26T08:32:26.233Z,1.05
2022-10-26T08:34:53.851Z,1.15
2022-10-26T08:37:21.398Z,1.60
2022-10-26T08:39:52.120Z,2.70
2022-10-26T08:42:38.460Z,2.45
2022-10-26T08:45:34.338Z,1.52
2022-10-26T08:48:25.905Z,1.70
2022-10-26T08:51:00.983Z,0.98
2022-10-26T08:53:46.932Z,0.95
2022-10-26T08:56:27.479Z,0.95
2022-10-26T08:59:32.254Z,0.30
2022-10-26T09:02:02.082Z,2.90
2022-10-26T09:04:31.678Z,1.12
2022-10-26T09:07:04.703Z,0.20
2022-10-26T09:09:32.475Z,1.62
2022-10-26T09:12:11.966Z,0.93
2022-10-26T09:14:43.926Z,1.12
2022-10-26T09:17:26.935Z,1.12
2022-10-26T09:20:07.301Z,1.45
2022-10-26T09:22:47.393Z,0.32
2022-10-26T09:25:19.390Z,0.45
2022-10-26T09:27:56.268Z,0.60
2022-10-26T09:30:24.368Z,0.32
2022-10-26T09:32:59.519Z,0.85
2022-10-26T09:36:01.487Z,1.87
2022-10-26T09:38:35.112Z,0.90
2022-10-26T09:41:08.602Z,0.60
2022-10-26T09:43:43.734Z,0.75
2022-10-26T09:46:18.866Z,0.60
2022-10-26T09:48:51.178Z,1.12
2022-10-26T09:51:19.661Z,0.40
2022-10-26T09:53:48.370Z,0.77
2022-10-26T09:56:17.344Z,0.88
2022-10-26T09:58:51.567Z,1.98
2022-10-26T10:01:32.378Z,0.60
2022-10-26T10:04:09.924Z,1.15
2022-10-26T10:06:37.637Z,2.62
2022-10-26T10:09:14.756Z,0.65
2022-10-26T10:11:48.310Z,0.88
2022-10-26T10:14:16.992Z,1.17
2022-10-26T10:17:01.585Z,1.05
2022-10-26T10:19:31.254Z,0.68
2022-10-26T10:22:00.746Z,0.50
2022-10-26T10:24:28.255Z,0.40
2022-10-26T10:27:00.139Z,1.10
2022-10-26T10:29:29.979Z,0.68
2022-10-26T10:32:02.513Z,0.68
2022-10-26T10:34:31.368Z,0.40
2022-10-26T10:37:00.778Z,0.32
2022-10-26T10:39:41.230Z,1.00
2022-10-26T10:42:23.585Z,0.20
2022-10-26T10:44:53.981Z,0.80
2022-10-26T10:47:27.633Z,0.82
2022-10-26T10:49:58.180Z,0.37
2022-10-26T10:55:10.910Z,0.60
2022-10-26T10:58:08.778Z,0.20
2022-10-26T11:00:41.333Z,0.70
2022-10-26T11:03:24.926Z,0.55
2022-10-26T11:05:59.815Z,0.47
2022-10-26T11:08:37.175Z,0.75
2022-10-26T11:11:14.639Z,0.82
2022-10-26T11:13:51.580Z,0.50
2022-10-26T11:16:23.744Z,0.50
2022-10-26T11:18:58.183Z,0.47
2022-10-26T11:21:28.361Z,0.30
2022-10-26T11:24:12.423Z,0.85
2022-10-26T11:26:46.194Z,0.40
2022-10-26T11:29:36.672Z,0.35
2022-10-26T11:32:42.438Z,0.40
2022-10-26T11:35:24.326Z,0.10
2022-10-26T11:38:02.660Z,0.82
2022-10-26T11:40:52.928Z,0.35
2022-10-26T11:43:41.498Z,0.85
2022-10-26T11:46:30.574Z,0.30
2022-10-26T11:49:13.124Z,0.20
2022-10-26T11:51:45.735Z,0.82
2022-10-26T11:54:24.476Z,0.68
2022-10-26T11:56:54.180Z,0.15
2022-10-26T11:59:33.318Z,0.20
2022-10-26T12:02:03.408Z,0.70
2022-10-26T12:04:33.949Z,0.47
2022-10-26T12:07:02.944Z,0.30
2022-10-26T12:09:35.582Z,0.47
2022-10-26T12:12:14.691Z,0.35
2022-10-26T12:14:47.490Z,0.40
2022-10-26T12:17:19.995Z,0.65
2022-10-26T12:19:55.936Z,0.60
2022-10-26T12:22:33.951Z,0.70
2022-10-26T12:25:28.011Z,0.68
2022-10-26T12:27:56.756Z,1.50
2022-10-26T12:30:26.275Z,0.30
2022-10-26T12:33:04.247Z,0.20
2022-10-26T12:35:45.387Z,0.15
2022-10-26T12:38:27.960Z,0.50
2022-10-26T12:41:03.654Z,0.30
2022-10-26T12:43:31.249Z,0.20
2022-10-26T12:46:13.974Z,0.50
2022-10-26T12:48:50.064Z,0.28
2022-10-26T12:51:21.377Z,0.75
2022-10-26T12:54:10.014Z,0.30
2022-10-26T12:56:57.609Z,0.40
2022-10-26T12:59:49.391Z,0.20
2022-10-26T13:02:29.305Z,0.40
2022-10-26T13:05:04.106Z,0.52
2022-10-26T13:07:38.332Z,0.60
2022-10-26T13:10:12.185Z,0.45
2022-10-26T13:12:42.668Z,0.30
2022-10-26T13:15:27.390Z,1.10
2022-10-26T13:18:07.808Z,0.70
2022-10-26T13:20:52.911Z,0.10
2022-10-26T13:23:28.280Z,0.60
2022-10-26T13:26:13.127Z,0.30
2022-10-26T13:28:40.745Z,0.68
2022-10-26T13:31:24.084Z,0.60
2022-10-26T13:33:52.727Z,0.60
2022-10-26T13:36:50.336Z,0.20
2022-10-26T13:39:23.612Z,0.75
2022-10-26T13:41:53.756Z,1.65
2022-10-26T13:44:47.363Z,0.50
2022-10-26T13:47:22.467Z,0.40
2022-10-26T13:49:53.008Z,0.35
2022-10-26T13:54:57.145Z,0.32
2022-10-26T13:57:35.506Z,0.45
2022-10-26T14:00:30.161Z,0.68
2022-10-26T14:02:58.146Z,0.40
2022-10-26T14:05:25.862Z,0.57
2022-10-26T14:07:58.387Z,0.40
2022-10-26T14:10:33.295Z,0.30
2022-10-26T14:13:01.624Z,0.95
2022-10-26T14:15:31.868Z,1.25
2022-10-26T14:18:01.132Z,0.30
2022-10-26T14:20:30.474Z,0.50
2022-10-26T14:22:58.437Z,0.40
2022-10-26T14:25:41.631Z,0.28
2022-10-26T14:28:21.989Z,1.37
2022-10-26T14:30:49.679Z,0.80
2022-10-26T14:33:19.470Z,1.20
2022-10-26T14:35:47.467Z,0.30
2022-10-26T14:38:26.141Z,0.28
2022-10-26T14:40:56.489Z,0.32
2022-10-26T14:43:25.157Z,0.83
2022-10-26T14:45:54.002Z,0.45
2022-10-26T14:48:23.550Z,0.73
2022-10-26T14:51:08.265Z,1.30
2022-10-26T14:53:38.991Z,0.77
2022-10-26T14:56:19.717Z,0.15
2022-10-26T14:58:47.672Z,1.00
2022-10-26T15:01:34.802Z,0.57
2022-10-26T15:04:21.663Z,0.75
2022-10-26T15:06:49.233Z,0.82
2022-10-26T15:09:50.904Z,0.32
2022-10-26T15:12:38.247Z,0.25
2022-10-26T15:15:15.379Z,0.52
2022-10-26T15:17:54.611Z,0.35
2022-10-26T15:20:27.097Z,0.65
2022-10-26T15:22:59.269Z,0.40
2022-10-26T15:25:30.084Z,0.70
2022-10-26T15:28:11.434Z,0.35
2022-10-26T15:31:01.090Z,0.50
2022-10-26T15:33:29.320Z,2.67
2022-10-26T15:36:08.759Z,1.58
2022-10-26T15:38:37.558Z,1.05
2022-10-26T15:41:10.184Z,1.87
2022-10-26T15:43:37.938Z,2.12
2022-10-26T15:46:05.935Z,1.30
2022-10-26T15:48:33.609Z,1.45
2022-10-26T15:51:02.023Z,0.52
2022-10-26T15:53:29.953Z,0.88
2022-10-26T15:55:58.943Z,0.25
2022-10-26T15:58:29.044Z,0.80
2022-10-26T16:00:57.035Z,0.08
2022-10-26T16:03:26.014Z,0.57
2022-10-26T16:06:02.557Z,0.52
2022-10-26T16:08:31.488Z,3.42
2022-10-26T16:10:59.159Z,7.12
2022-10-26T16:13:26.877Z,5.87
2022-10-26T16:15:54.933Z,6.93
2022-10-26T16:18:22.563Z,4.00
2022-10-26T16:20:50.117Z,2.90
2022-10-26T16:23:18.229Z,1.73
2022-10-26T16:25:46.626Z,1.83
2022-10-26T16:28:15.923Z,1.15
2022-10-26T16:30:44.230Z,1.10
2022-10-26T16:33:12.111Z,1.35
2022-10-26T16:35:39.903Z,1.92
2022-10-26T16:38:08.138Z,2.20
2022-10-26T16:40:36.978Z,2.62
2022-10-26T16:43:04.823Z,3.60
2022-10-26T16:45:32.731Z,4.93
2022-10-26T16:48:00.334Z,2.95
2022-10-26T16:50:28.752Z,3.67
2022-10-26T16:52:58.363Z,4.10
2022-10-26T16:55:26.139Z,2.67
2022-10-26T16:57:53.809Z,4.22
2022-10-26T17:00:22.268Z,4.12
2022-10-26T17:02:51.211Z,3.50
2022-10-26T17:05:18.796Z,3.03
2022-10-26T17:07:47.407Z,4.30
2022-10-26T17:10:15.396Z,3.33
2022-10-26T17:12:43.270Z,3.80
2022-10-26T17:15:13.705Z,2.72
2022-10-26T17:17:42.565Z,2.17
2022-10-26T17:20:10.974Z,1.58
2022-10-26T17:22:39.017Z,1.95
2022-10-26T17:25:07.129Z,1.77
2022-10-26T17:27:35.203Z,2.40
2022-10-26T17:30:03.529Z,1.95
2022-10-26T17:32:32.242Z,4.78
2022-10-26T17:35:02.698Z,3.05
2022-10-26T17:37:30.863Z,3.83
2022-10-26T17:39:58.715Z,5.62
2022-10-26T17:42:26.636Z,7.28
2022-10-26T17:44:57.269Z,2.62
2022-10-26T17:47:25.144Z,4.37
2022-10-26T17:49:52.821Z,2.67
2022-10-26T17:52:20.978Z,1.55
2022-10-26T17:54:48.919Z,2.75
2022-10-26T17:57:17.003Z,1.70
2022-10-26T17:59:45.200Z,2.47
2022-10-26T18:02:13.824Z,2.00
2022-10-26T18:04:42.230Z,1.23
2022-10-26T18:07:12.694Z,1.17
2022-10-26T18:09:40.452Z,0.77
2022-10-26T18:12:08.654Z,0.95
2022-10-26T18:14:37.676Z,1.00
2022-10-26T18:17:05.605Z,1.77
2022-10-26T18:19:34.100Z,3.17
2022-10-26T18:22:02.032Z,2.30
2022-10-26T18:24:29.702Z,3.15
2022-10-26T18:26:57.978Z,3.45
2022-10-26T18:29:26.982Z,1.92
2022-10-26T18:31:54.968Z,2.70
2022-10-26T18:34:23.343Z,1.95
2022-10-26T18:36:53.472Z,2.60
2022-10-26T18:39:22.257Z,1.80
2022-10-26T18:41:50.477Z,1.58
2022-10-26T18:44:18.347Z,2.28
2022-10-26T18:46:46.264Z,2.75
2022-10-26T18:49:14.464Z,3.00
2022-10-26T18:51:42.315Z,2.72
2022-10-26T18:54:10.277Z,3.28
2022-10-26T18:56:38.683Z,2.15
2022-10-26T18:59:06.630Z,2.25
2022-10-26T19:01:36.368Z,2.40
2022-10-26T19:04:09.331Z,1.67
2022-10-26T19:06:39.499Z,2.58
2022-10-26T19:09:08.224Z,2.15
2022-10-26T19:11:37.305Z,3.25
2022-10-26T19:14:05.317Z,6.55
2022-10-26T19:16:45.153Z,4.72
2022-10-26T19:19:16.539Z,6.25
2022-10-26T19:21:46.618Z,3.65
2022-10-26T19:24:17.498Z,4.05
2022-10-26T19:26:48.102Z,3.87
2022-10-26T19:31:47.433Z,4.57
2022-10-26T19:34:16.100Z,2.60
2022-10-26T19:36:45.315Z,3.33
2022-10-26T19:39:17.928Z,2.12
2022-10-26T19:41:47.407Z,1.85
2022-10-26T19:44:16.544Z,1.10
2022-10-26T19:46:45.622Z,2.80
2022-10-26T19:49:14.521Z,1.90
2022-10-26T19:51:42.968Z,2.15
2022-10-26T19:54:11.089Z,1.10
2022-10-26T19:56:38.957Z,1.90
2022-10-26T19:59:07.743Z,1.65
2022-10-26T20:01:35.513Z,1.45
2022-10-26T20:04:04.193Z,0.77
2022-10-26T20:06:32.281Z,2.95
2022-10-26T20:09:00.315Z,1.23
2022-10-26T20:11:28.513Z,0.90
2022-10-26T20:13:56.419Z,1.60
2022-10-26T20:16:25.070Z,2.20
2022-10-26T20:18:55.673Z,1.40
2022-10-26T20:21:23.480Z,1.63
2022-10-26T20:23:51.298Z,1.87
2022-10-26T20:26:21.928Z,2.12
2022-10-26T20:28:51.284Z,1.27
2022-10-26T20:31:19.747Z,1.90
2022-10-26T20:33:52.051Z,2.10
2022-10-26T20:36:20.549Z,2.42
2022-10-26T20:38:48.878Z,1.50
2022-10-26T20:41:17.134Z,1.05
2022-10-26T20:43:45.351Z,1.40
2022-10-26T20:46:25.517Z,2.00
2022-10-26T20:48:54.188Z,4.15
2022-10-26T20:51:40.039Z,0.70
2022-10-26T20:54:29.193Z,1.42
2022-10-26T20:56:59.009Z,4.05
2022-10-26T20:59:39.728Z,1.47
2022-10-26T21:02:10.627Z,0.93
2022-10-26T21:04:39.035Z,0.80
2022-10-26T21:07:06.628Z,1.52
2022-10-26T21:09:36.662Z,1.87
2022-10-26T21:12:05.040Z,0.35
2022-10-26T21:14:32.716Z,0.88
2022-10-26T21:17:00.313Z,0.73
2022-10-26T21:19:28.163Z,1.55
2022-10-26T21:21:55.740Z,1.37
2022-10-26T21:24:23.450Z,0.90
2022-10-26T21:26:51.399Z,0.45
2022-10-26T21:29:19.084Z,0.65
2022-10-26T21:31:46.719Z,0.70
2022-10-26T21:34:14.837Z,1.55
2022-10-26T21:36:42.437Z,1.33
2022-10-26T21:39:10.275Z,0.55
2022-10-26T21:41:38.395Z,1.55
2022-10-26T21:44:09.200Z,1.33
2022-10-26T21:46:38.424Z,1.13
2022-10-26T21:49:06.267Z,1.90
2022-10-26T21:51:34.054Z,0.47
2022-10-26T21:54:02.500Z,0.88
2022-10-26T21:56:30.211Z,1.52
2022-10-26T21:58:58.819Z,1.15
2022-10-26T22:01:26.998Z,1.33
2022-10-26T22:03:55.085Z,2.53
2022-10-26T22:06:23.194Z,0.73
2022-10-26T22:08:50.776Z,0.70
2022-10-26T22:11:21.057Z,1.62
2022-10-26T22:13:49.375Z,1.52
2022-10-26T22:16:28.680Z,0.98
2022-10-26T22:18:58.505Z,1.00
2022-10-26T22:21:27.035Z,1.42
2022-10-26T22:23:55.042Z,0.65
2022-10-26T22:26:24.634Z,0.52
2022-10-26T22:28:54.078Z,0.47
2022-10-26T22:31:23.127Z,1.10
2022-10-26T22:33:56.244Z,0.93
2022-10-26T22:36:24.184Z,1.60
2022-10-26T22:38:52.385Z,1.48
2022-10-26T22:41:21.162Z,2.05
2022-10-26T22:43:48.948Z,1.42
2022-10-26T22:46:21.712Z,0.82
2022-10-26T22:48:57.660Z,1.30
2022-10-26T22:51:29.717Z,1.23
2022-10-26T22:53:58.367Z,1.25
2022-10-26T22:59:00.038Z,1.73
2022-10-26T23:01:33.242Z,2.30
2022-10-26T23:04:01.028Z,1.40
2022-10-26T23:06:30.403Z,1.15
2022-10-26T23:08:58.219Z,0.85
2022-10-26T23:11:27.644Z,0.50
2022-10-26T23:13:58.897Z,1.95
2022-10-26T23:16:27.097Z,1.25
2022-10-26T23:18:55.404Z,0.52
2022-10-26T23:21:24.461Z,1.67
2022-10-26T23:23:52.061Z,0.60
2022-10-26T23:26:20.626Z,1.42
2022-10-26T23:28:48.921Z,0.93
2022-10-26T23:31:22.070Z,1.08
2022-10-26T23:33:50.572Z,0.90
2022-10-26T23:36:18.357Z,0.98
2022-10-26T23:38:46.332Z,2.37
2022-10-26T23:41:14.602Z,0.50
2022-10-26T23:43:42.328Z,1.20
2022-10-26T23:46:10.062Z,0.88
2022-10-26T23:48:38.343Z,2.78
2022-10-26T23:51:06.541Z,1.10
2022-10-26T23:53:34.589Z,0.30
2022-10-26T23:56:02.703Z,0.90
2022-10-26T23:58:30.985Z,0.50
